createdAt,value
2023-05-15T00:00:37.556Z,14.90
2023-05-15T00:03:04.777Z,14.90
2023-05-15T00:05:31.840Z,15.00
2023-05-15T00:07:58.762Z,14.90
2023-05-15T00:10:25.517Z,14.80
2023-05-15T00:12:52.141Z,14.70
2023-05-15T00:15:18.869Z,14.70
2023-05-15T00:17:45.497Z,14.60
2023-05-15T00:20:12.999Z,14.60
2023-05-15T00:22:39.868Z,14.60
2023-05-15T00:25:07.277Z,14.60
2023-05-15T00:27:34.129Z,14.50
2023-05-15T00:30:00.958Z,14.50
2023-05-15T00:32:27.600Z,14.50
2023-05-15T00:34:54.395Z,14.60
2023-05-15T00:37:21.060Z,14.60
2023-05-15T00:39:47.832Z,14.60
2023-05-15T00:42:15.382Z,14.70
2023-05-15T00:44:44.743Z,14.60
2023-05-15T00:47:12.546Z,14.60
2023-05-15T00:49:40.964Z,14.60
2023-05-15T00:52:08.749Z,14.60
2023-05-15T00:54:35.813Z,14.50
2023-05-15T00:57:05.678Z,14.50
2023-05-15T00:59:33.405Z,14.60
2023-05-15T01:02:00.631Z,14.50
2023-05-15T01:04:27.839Z,14.50
2023-05-15T01:06:55.054Z,14.60
2023-05-15T01:09:25.411Z,14.60
2023-05-15T01:11:55.238Z,14.60
2023-05-15T01:14:22.091Z,14.60
2023-05-15T01:16:48.705Z,14.70
2023-05-15T01:19:15.783Z,14.60
2023-05-15T01:22:22.121Z,14.70
2023-05-15T01:25:12.424Z,14.60
2023-05-15T01:27:47.278Z,14.60
2023-05-15T01:30:19.676Z,14.60
2023-05-15T01:33:21.018Z,14.60
2023-05-15T01:35:53.343Z,14.50
2023-05-15T01:38:35.858Z,14.60
2023-05-15T01:41:22.250Z,14.60
2023-05-15T01:43:55.602Z,14.50
2023-05-15T01:46:24.094Z,14.50
2023-05-15T01:48:52.197Z,14.50
2023-05-15T01:51:20.743Z,14.50
2023-05-15T01:53:49.383Z,14.40
2023-05-15T01:56:19.962Z,14.40
2023-05-15T01:58:48.311Z,14.40
2023-05-15T02:01:17.705Z,14.40
2023-05-15T02:03:46.227Z,14.40
2023-05-15T02:06:14.280Z,14.50
2023-05-15T02:08:42.921Z,14.50
2023-05-15T02:11:10.638Z,14.50
2023-05-15T02:13:38.337Z,14.50
2023-05-15T02:16:05.586Z,14.50
2023-05-15T02:18:32.532Z,14.40
2023-05-15T02:21:01.066Z,14.40
2023-05-15T02:23:27.871Z,14.50
2023-05-15T02:26:09.775Z,14.50
2023-05-15T02:28:58.269Z,14.30
2023-05-15T02:31:49.504Z,14.30
2023-05-15T02:34:42.526Z,14.10
2023-05-15T02:37:14.224Z,14.10
2023-05-15T02:39:43.774Z,14.10
2023-05-15T02:42:12.734Z,14.10
2023-05-15T02:44:40.753Z,14.20
2023-05-15T02:47:08.319Z,14.20
2023-05-15T02:49:36.765Z,14.30
2023-05-15T02:52:03.704Z,14.20
2023-05-15T02:54:30.466Z,14.30
2023-05-15T02:56:57.136Z,14.30
2023-05-15T02:59:23.946Z,14.30
2023-05-15T03:01:50.584Z,14.20
2023-05-15T03:04:17.376Z,14.30
2023-05-15T03:06:44.071Z,14.40
2023-05-15T03:09:10.758Z,14.30
2023-05-15T03:11:37.473Z,14.30
2023-05-15T03:14:04.165Z,14.40
2023-05-15T03:16:30.971Z,14.30
2023-05-15T03:18:57.739Z,14.30
2023-05-15T03:21:24.662Z,14.40
2023-05-15T03:23:51.387Z,14.40
2023-05-15T03:26:18.041Z,14.30
2023-05-15T03:28:44.768Z,14.30
2023-05-15T03:31:11.521Z,14.30
2023-05-15T03:33:49.915Z,14.30
2023-05-15T03:36:16.706Z,14.30
2023-05-15T03:38:44.379Z,14.40
2023-05-15T03:41:11.176Z,14.30
2023-05-15T03:43:38.072Z,14.20
2023-05-15T03:46:05.748Z,14.20
2023-05-15T03:48:32.527Z,14.20
2023-05-15T03:50:59.208Z,14.20
2023-05-15T03:53:26.130Z,14.20
2023-05-15T03:55:52.993Z,14.10
2023-05-15T03:58:19.772Z,14.10
2023-05-15T04:00:46.510Z,14.10
2023-05-15T04:03:13.465Z,14.20
2023-05-15T04:05:40.532Z,14.10
2023-05-15T04:08:07.298Z,14.10
2023-05-15T04:10:33.936Z,14.00
2023-05-15T04:13:00.717Z,13.90
2023-05-15T04:15:28.708Z,13.90
2023-05-15T04:17:55.987Z,13.90
2023-05-15T04:20:24.473Z,14.00
2023-05-15T04:22:52.739Z,13.90
2023-05-15T04:25:20.390Z,14.00
2023-05-15T04:27:50.107Z,14.00
2023-05-15T04:30:17.102Z,14.00
2023-05-15T04:32:43.996Z,14.00
2023-05-15T04:35:12.534Z,14.00
2023-05-15T04:37:40.843Z,14.00
2023-05-15T04:40:08.971Z,14.00
2023-05-15T04:42:38.573Z,14.00
2023-05-15T04:45:06.998Z,14.00
2023-05-15T04:47:34.052Z,14.10
2023-05-15T04:50:00.953Z,14.00
2023-05-15T04:52:27.690Z,13.90
2023-05-15T04:54:55.920Z,13.90
2023-05-15T04:57:23.045Z,13.90
2023-05-15T04:59:50.102Z,13.90
2023-05-15T05:02:19.981Z,13.90
2023-05-15T05:04:46.748Z,13.90
2023-05-15T05:07:13.514Z,14.00
2023-05-15T05:09:40.399Z,13.90
2023-05-15T05:12:08.182Z,14.00
2023-05-15T05:14:35.427Z,14.10
2023-05-15T05:17:02.221Z,14.10
2023-05-15T05:19:28.917Z,14.20
2023-05-15T05:21:55.944Z,14.20
2023-05-15T05:24:22.654Z,14.20
2023-05-15T05:26:49.603Z,14.20
2023-05-15T05:29:16.366Z,14.20
2023-05-15T05:31:43.089Z,14.20
2023-05-15T05:34:09.882Z,14.30
2023-05-15T05:36:37.084Z,14.30
2023-05-15T05:39:04.778Z,14.40
2023-05-15T05:41:31.595Z,14.40
2023-05-15T05:43:58.226Z,14.40
2023-05-15T05:46:26.281Z,14.50
2023-05-15T05:48:53.110Z,14.50
2023-05-15T05:51:19.828Z,14.50
2023-05-15T05:53:46.535Z,14.50
2023-05-15T05:56:13.435Z,14.60
2023-05-15T05:58:40.273Z,14.60
2023-05-15T06:01:07.736Z,14.60
2023-05-15T06:03:34.947Z,14.70
2023-05-15T06:06:01.995Z,14.70
2023-05-15T06:08:29.648Z,14.70
2023-05-15T06:10:56.410Z,14.80
2023-05-15T06:13:23.121Z,14.80
2023-05-15T06:15:50.886Z,14.80
2023-05-15T06:18:17.705Z,14.80
2023-05-15T06:20:44.375Z,14.80
2023-05-15T06:23:11.091Z,14.90
2023-05-15T06:25:37.962Z,14.80
2023-05-15T06:28:04.907Z,14.90
2023-05-15T06:30:31.789Z,15.00
2023-05-15T06:32:58.717Z,15.10
2023-05-15T06:35:25.511Z,14.90
2023-05-15T06:37:53.082Z,14.90
2023-05-15T06:40:20.906Z,15.00
2023-05-15T06:42:47.736Z,15.10
2023-05-15T06:45:14.482Z,15.10
2023-05-15T06:47:41.270Z,15.20
2023-05-15T06:50:08.526Z,15.20
2023-05-15T06:52:35.318Z,15.20
2023-05-15T06:55:02.041Z,15.30
2023-05-15T06:57:28.791Z,15.30
2023-05-15T06:59:55.505Z,15.40
2023-05-15T07:02:22.316Z,15.40
2023-05-15T07:04:49.164Z,15.40
2023-05-15T07:07:16.095Z,15.40
2023-05-15T07:09:43.002Z,15.40
2023-05-15T07:12:09.964Z,15.50
2023-05-15T07:14:36.749Z,15.60
2023-05-15T07:17:03.789Z,15.60
2023-05-15T07:19:30.823Z,15.60
2023-05-15T07:21:57.607Z,15.50
2023-05-15T07:24:24.203Z,15.60
2023-05-15T07:29:24.211Z,15.70
2023-05-15T07:31:51.068Z,15.70
2023-05-15T07:34:17.961Z,15.80
2023-05-15T07:36:44.739Z,15.80
2023-05-15T07:39:11.667Z,15.80
2023-05-15T07:41:38.468Z,15.80
2023-05-15T07:44:06.020Z,15.90
2023-05-15T07:46:33.839Z,15.90
2023-05-15T07:49:00.874Z,0.00
2023-05-15T07:51:27.602Z,16.00
2023-05-15T07:53:54.356Z,16.10
2023-05-15T07:56:21.554Z,16.20
2023-05-15T07:58:48.680Z,16.10
2023-05-15T08:01:16.060Z,16.20
2023-05-15T08:03:43.027Z,16.30
2023-05-15T08:06:10.055Z,16.20
2023-05-15T08:08:36.769Z,16.20
2023-05-15T08:11:03.461Z,16.30
2023-05-15T08:13:30.320Z,16.30
2023-05-15T08:15:57.254Z,16.30
2023-05-15T08:18:24.088Z,16.20
2023-05-15T08:20:52.164Z,16.20
2023-05-15T08:23:19.045Z,16.30
2023-05-15T08:25:46.247Z,16.30
2023-05-15T08:28:13.036Z,16.30
2023-05-15T08:30:39.832Z,16.40
2023-05-15T08:33:06.763Z,16.40
2023-05-15T08:35:33.916Z,16.40
2023-05-15T08:38:00.714Z,16.40
2023-05-15T08:43:03.570Z,16.50
2023-05-15T08:45:31.277Z,16.40
2023-05-15T08:48:00.602Z,16.60
2023-05-15T08:50:28.600Z,16.60
2023-05-15T08:52:58.408Z,16.50
2023-05-15T08:55:25.898Z,16.60
2023-05-15T08:57:54.439Z,16.70
2023-05-15T09:00:22.462Z,16.80
2023-05-15T09:02:49.424Z,16.80
2023-05-15T09:05:16.425Z,16.80
2023-05-15T09:07:45.504Z,16.90
2023-05-15T09:10:13.671Z,16.90
2023-05-15T09:12:44.754Z,17.00
2023-05-15T09:15:22.480Z,17.00
2023-05-15T09:17:50.348Z,17.00
2023-05-15T09:20:38.040Z,17.10
2023-05-15T09:23:21.599Z,17.20
2023-05-15T09:25:53.122Z,17.20
2023-05-15T09:28:31.152Z,17.30
2023-05-15T09:31:02.896Z,17.30
2023-05-15T09:33:38.054Z,17.30
2023-05-15T09:36:06.332Z,17.40
2023-05-15T09:38:33.977Z,17.30
2023-05-15T09:41:08.048Z,17.40
2023-05-15T09:43:39.122Z,17.50
2023-05-15T09:46:07.044Z,17.50
2023-05-15T09:48:35.001Z,17.60
2023-05-15T09:51:02.323Z,17.60
2023-05-15T09:53:30.486Z,17.70
2023-05-15T09:55:57.446Z,17.70
2023-05-15T09:58:24.251Z,17.80
2023-05-15T10:00:51.021Z,17.80
2023-05-15T10:03:20.122Z,17.90
2023-05-15T10:05:47.327Z,18.10
2023-05-15T10:08:15.656Z,18.10
2023-05-15T10:10:43.689Z,18.10
2023-05-15T10:13:11.951Z,18.10
2023-05-15T10:15:39.930Z,18.20
2023-05-15T10:18:07.807Z,18.30
2023-05-15T10:20:38.059Z,18.20
2023-05-15T10:23:06.619Z,18.20
2023-05-15T10:25:45.780Z,18.20
2023-05-15T10:28:13.652Z,18.20
2023-05-15T10:30:42.154Z,18.30
2023-05-15T10:33:09.418Z,18.30
2023-05-15T10:35:36.829Z,18.30
2023-05-15T10:38:05.803Z,18.50
2023-05-15T10:40:36.589Z,18.50
2023-05-15T10:43:04.886Z,18.50
2023-05-15T10:45:33.182Z,18.50
2023-05-15T10:48:01.141Z,18.50
2023-05-15T10:50:28.224Z,18.60
2023-05-15T10:52:55.963Z,18.80
2023-05-15T10:55:23.783Z,18.80
2023-05-15T10:57:50.810Z,18.70
2023-05-15T11:00:24.288Z,18.80
2023-05-15T11:02:56.882Z,18.80
2023-05-15T11:05:24.904Z,18.80
2023-05-15T11:08:13.619Z,18.80
2023-05-15T11:10:40.471Z,18.80
2023-05-15T11:13:07.264Z,18.80
2023-05-15T11:15:45.058Z,18.90
2023-05-15T11:18:12.367Z,18.90
2023-05-15T11:20:40.813Z,19.00
2023-05-15T11:23:07.879Z,19.10
2023-05-15T11:25:36.606Z,19.10
2023-05-15T11:28:04.694Z,19.10
2023-05-15T11:30:41.355Z,0.00
2023-05-15T11:33:11.179Z,19.20
2023-05-15T11:35:48.499Z,19.20
2023-05-15T11:38:20.210Z,19.20
2023-05-15T11:40:48.158Z,19.40
2023-05-15T11:43:28.384Z,19.40
2023-05-15T11:46:16.496Z,19.50
2023-05-15T11:48:50.652Z,19.60
2023-05-15T11:51:24.820Z,19.70
2023-05-15T11:53:56.318Z,19.70
2023-05-15T11:56:30.404Z,19.80
2023-05-15T11:58:58.985Z,19.80
2023-05-15T12:01:25.865Z,19.80
2023-05-15T12:03:54.335Z,19.80
2023-05-15T12:06:22.081Z,19.90
2023-05-15T12:08:52.931Z,19.90
2023-05-15T12:11:24.416Z,20.00
2023-05-15T12:13:55.108Z,20.00
2023-05-15T12:16:26.692Z,20.10
2023-05-15T12:18:54.297Z,20.10
2023-05-15T12:21:21.171Z,20.10
2023-05-15T12:24:06.883Z,20.10
2023-05-15T12:26:35.863Z,20.10
2023-05-15T12:29:03.832Z,20.20
2023-05-15T12:31:30.880Z,20.10
2023-05-15T12:33:57.772Z,20.10
2023-05-15T12:36:27.414Z,20.00
2023-05-15T12:38:54.207Z,20.20
2023-05-15T12:41:21.169Z,0.00
2023-05-15T12:43:48.586Z,20.30
2023-05-15T12:46:15.515Z,20.40
2023-05-15T12:48:42.406Z,20.30
2023-05-15T12:51:09.453Z,20.40
2023-05-15T12:53:39.336Z,20.50
2023-05-15T12:56:06.716Z,20.50
2023-05-15T12:58:33.945Z,20.60
2023-05-15T13:01:03.201Z,20.70
2023-05-15T13:03:30.621Z,20.70
2023-05-15T13:05:57.749Z,20.80
2023-05-15T13:08:24.625Z,20.90
2023-05-15T13:11:00.038Z,21.10
2023-05-15T13:13:52.890Z,21.20
2023-05-15T13:16:22.153Z,21.30
2023-05-15T13:18:49.065Z,21.30
2023-05-15T13:21:16.332Z,21.40
2023-05-15T13:23:43.183Z,21.40
2023-05-15T13:26:09.967Z,21.50
2023-05-15T13:28:36.674Z,21.50
2023-05-15T13:31:03.546Z,21.60
2023-05-15T13:33:30.791Z,21.80
2023-05-15T13:35:57.792Z,21.90
2023-05-15T13:38:24.635Z,22.10
2023-05-15T13:40:51.498Z,22.20
2023-05-15T13:43:18.315Z,22.40
2023-05-15T13:45:45.048Z,22.40
2023-05-15T13:48:11.894Z,22.50
2023-05-15T13:50:39.580Z,22.60
2023-05-15T13:53:06.350Z,22.70
2023-05-15T13:55:33.204Z,22.70
2023-05-15T13:58:01.089Z,22.70
2023-05-15T14:00:27.916Z,22.80
2023-05-15T14:02:54.885Z,22.70
2023-05-15T14:05:21.746Z,22.80
2023-05-15T14:07:48.482Z,22.70
2023-05-15T14:10:15.401Z,22.60
2023-05-15T14:12:43.416Z,22.80
2023-05-15T14:15:11.979Z,22.80
2023-05-15T14:17:39.668Z,22.90
2023-05-15T14:20:07.225Z,22.70
2023-05-15T14:22:34.162Z,22.70
2023-05-15T14:25:00.970Z,22.50
2023-05-15T14:27:27.940Z,22.40
2023-05-15T14:29:56.741Z,22.60
2023-05-15T14:32:24.438Z,22.50
2023-05-15T14:34:51.670Z,22.40
2023-05-15T14:37:19.596Z,22.30
2023-05-15T14:39:46.421Z,22.10
2023-05-15T14:42:13.241Z,21.90
2023-05-15T14:44:40.079Z,21.80
2023-05-15T14:47:12.665Z,21.80
2023-05-15T14:49:39.738Z,21.70
2023-05-15T14:52:09.268Z,21.70
2023-05-15T14:54:36.545Z,21.60
2023-05-15T14:57:03.902Z,21.50
2023-05-15T14:59:31.094Z,21.50
2023-05-15T15:01:58.043Z,21.40
2023-05-15T15:04:26.655Z,21.40
2023-05-15T15:06:56.878Z,21.50
2023-05-15T15:09:25.351Z,21.60
2023-05-15T15:11:53.150Z,21.80
2023-05-15T15:14:20.084Z,22.00
2023-05-15T15:16:47.101Z,22.20
2023-05-15T15:19:15.143Z,22.20
2023-05-15T15:21:43.258Z,22.20
2023-05-15T15:24:10.031Z,22.10
2023-05-15T15:26:36.810Z,22.10
2023-05-15T15:29:03.552Z,22.20
2023-05-15T15:31:31.777Z,22.20
2023-05-15T15:33:58.931Z,22.10
2023-05-15T15:36:25.971Z,22.00
2023-05-15T15:38:52.807Z,21.90
2023-05-15T15:41:21.339Z,21.90
2023-05-15T15:43:48.374Z,21.90
2023-05-15T15:46:15.288Z,21.80
2023-05-15T15:48:42.140Z,21.90
2023-05-15T15:51:08.995Z,21.80
2023-05-15T15:53:35.844Z,21.70
2023-05-15T15:56:02.711Z,21.60
2023-05-15T15:58:29.872Z,21.60
2023-05-15T16:00:57.487Z,21.60
2023-05-15T16:03:24.856Z,21.60
2023-05-15T16:05:51.881Z,21.60
2023-05-15T16:08:18.787Z,21.60
2023-05-15T16:10:45.672Z,21.50
2023-05-15T16:13:12.452Z,21.40
2023-05-15T16:15:39.225Z,21.40
2023-05-15T16:18:06.144Z,21.40
2023-05-15T16:20:35.101Z,21.30
2023-05-15T16:23:02.467Z,21.40
2023-05-15T16:25:29.413Z,21.40
2023-05-15T16:27:56.400Z,21.30
2023-05-15T16:30:28.242Z,21.20
2023-05-15T16:33:01.162Z,21.10
2023-05-15T16:35:28.086Z,21.10
2023-05-15T16:37:55.268Z,21.10
2023-05-15T16:40:22.097Z,21.00
2023-05-15T16:42:48.809Z,20.90
2023-05-15T16:45:16.406Z,21.00
2023-05-15T16:47:43.210Z,20.90
2023-05-15T16:50:10.461Z,20.90
2023-05-15T16:52:38.836Z,20.90
2023-05-15T16:55:06.201Z,20.80
2023-05-15T16:57:32.929Z,20.80
2023-05-15T16:59:59.669Z,20.90
2023-05-15T17:02:26.541Z,21.00
2023-05-15T17:04:53.395Z,21.00
2023-05-15T17:07:20.601Z,20.90
2023-05-15T17:09:47.483Z,20.90
2023-05-15T17:12:14.270Z,20.90
2023-05-15T17:14:41.092Z,20.80
2023-05-15T17:17:07.913Z,20.70
2023-05-15T17:19:34.805Z,20.80
2023-05-15T17:22:01.716Z,20.80
2023-05-15T17:24:35.531Z,20.80
2023-05-15T17:27:09.346Z,0.00
2023-05-15T17:29:36.432Z,20.60
2023-05-15T17:32:04.202Z,20.80
2023-05-15T17:34:31.065Z,20.70
2023-05-15T17:36:57.851Z,20.80
2023-05-15T17:39:25.019Z,20.80
2023-05-15T17:41:51.719Z,20.70
2023-05-15T17:44:18.437Z,20.60
2023-05-15T17:46:45.428Z,0.00
2023-05-15T17:49:12.281Z,20.60
2023-05-15T17:51:39.038Z,20.50
2023-05-15T17:54:06.608Z,20.50
2023-05-15T17:56:33.370Z,20.50
2023-05-15T17:59:00.153Z,20.40
2023-05-15T18:01:27.040Z,20.40
2023-05-15T18:03:53.943Z,20.40
2023-05-15T18:06:20.824Z,20.30
2023-05-15T18:08:47.892Z,20.50
2023-05-15T18:11:22.585Z,20.30
2023-05-15T18:13:49.739Z,20.10
2023-05-15T18:16:17.943Z,19.90
2023-05-15T18:18:44.983Z,19.80
2023-05-15T18:21:11.736Z,19.80
2023-05-15T18:23:38.458Z,19.80
2023-05-15T18:26:05.294Z,19.70
2023-05-15T18:28:32.070Z,19.70
2023-05-15T18:30:59.363Z,19.70
2023-05-15T18:33:26.349Z,19.70
2023-05-15T18:35:53.550Z,19.70
2023-05-15T18:38:20.997Z,19.80
2023-05-15T18:40:48.430Z,19.70
2023-05-15T18:43:15.196Z,19.70
2023-05-15T18:45:41.922Z,19.60
2023-05-15T18:48:08.750Z,19.60
2023-05-15T18:50:36.305Z,19.70
2023-05-15T18:53:05.859Z,19.60
2023-05-15T18:55:32.709Z,19.50
2023-05-15T18:57:59.406Z,19.50
2023-05-15T19:00:37.339Z,19.50
2023-05-15T19:03:07.029Z,19.50
2023-05-15T19:05:34.331Z,19.40
2023-05-15T19:08:01.622Z,19.40
2023-05-15T19:10:29.627Z,19.40
2023-05-15T19:12:57.514Z,19.40
2023-05-15T19:15:25.007Z,19.40
2023-05-15T19:17:52.041Z,19.40
2023-05-15T19:20:19.082Z,19.30
2023-05-15T19:22:46.154Z,19.30
2023-05-15T19:25:13.055Z,19.30
2023-05-15T19:27:39.939Z,19.20
2023-05-15T19:30:07.773Z,19.20
2023-05-15T19:32:34.830Z,19.20
2023-05-15T19:35:02.030Z,19.20
2023-05-15T19:37:29.072Z,19.20
2023-05-15T19:39:57.175Z,19.20
2023-05-15T19:42:24.027Z,19.10
2023-05-15T19:44:50.820Z,19.10
2023-05-15T19:47:17.551Z,19.00
2023-05-15T19:49:44.274Z,19.00
2023-05-15T19:52:11.014Z,19.00
2023-05-15T19:54:37.945Z,18.90
2023-05-15T19:57:04.871Z,18.80
2023-05-15T19:59:31.650Z,18.70
2023-05-15T20:01:58.468Z,18.50
2023-05-15T20:04:25.949Z,0.00
2023-05-15T20:06:53.219Z,18.30
2023-05-15T20:09:20.030Z,18.20
2023-05-15T20:11:46.785Z,18.20
2023-05-15T20:14:14.971Z,18.20
2023-05-15T20:16:41.746Z,18.20
2023-05-15T20:19:10.978Z,18.10
2023-05-15T20:21:38.614Z,18.20
2023-05-15T20:24:06.032Z,18.20
2023-05-15T20:26:35.579Z,18.20
2023-05-15T20:29:03.835Z,18.20
2023-05-15T20:31:30.818Z,18.10
2023-05-15T20:33:57.795Z,18.10
2023-05-15T20:36:27.233Z,18.20
2023-05-15T20:38:55.006Z,18.30
2023-05-15T20:41:23.249Z,18.20
2023-05-15T20:43:50.277Z,18.20
2023-05-15T20:46:17.291Z,18.30
2023-05-15T20:48:44.227Z,18.20
2023-05-15T20:51:11.027Z,18.30
2023-05-15T20:53:37.855Z,18.20
2023-05-15T20:56:04.782Z,18.20
2023-05-15T20:58:31.748Z,18.10
2023-05-15T21:01:01.068Z,18.20
2023-05-15T21:03:28.981Z,18.10
2023-05-15T21:05:57.512Z,18.10
2023-05-15T21:08:24.476Z,18.10
2023-05-15T21:10:53.135Z,18.00
2023-05-15T21:13:19.949Z,18.00
2023-05-15T21:15:46.792Z,17.90
2023-05-15T21:18:13.860Z,18.00
2023-05-15T21:20:41.715Z,17.80
2023-05-15T21:23:08.528Z,17.90
2023-05-15T21:25:35.378Z,17.90
2023-05-15T21:28:02.098Z,17.80
2023-05-15T21:30:28.928Z,17.80
2023-05-15T21:32:55.849Z,17.90
2023-05-15T21:35:22.781Z,17.80
2023-05-15T21:37:49.501Z,17.70
2023-05-15T21:40:16.328Z,17.80
2023-05-15T21:42:43.478Z,17.70
2023-05-15T21:45:10.898Z,17.60
2023-05-15T21:47:37.808Z,17.50
2023-05-15T21:50:06.053Z,17.50
2023-05-15T21:52:32.984Z,17.50
2023-05-15T21:54:59.773Z,17.60
2023-05-15T21:57:26.566Z,17.70
2023-05-15T21:59:53.342Z,17.70
2023-05-15T22:02:20.426Z,17.70
2023-05-15T22:04:47.272Z,17.60
2023-05-15T22:07:14.930Z,17.50
2023-05-15T22:09:43.019Z,17.60
2023-05-15T22:12:10.149Z,17.50
2023-05-15T22:14:39.624Z,17.50
2023-05-15T22:17:12.091Z,17.50
2023-05-15T22:19:42.169Z,17.60
2023-05-15T22:22:12.728Z,17.60
2023-05-15T22:24:39.436Z,17.50
2023-05-15T22:27:06.154Z,17.50
2023-05-15T22:29:32.873Z,17.50
2023-05-15T22:31:59.831Z,17.60
2023-05-15T22:34:28.899Z,17.50
2023-05-15T22:36:56.522Z,17.50
2023-05-15T22:39:23.265Z,17.50
2023-05-15T22:41:50.558Z,17.50
2023-05-15T22:44:17.369Z,17.30
2023-05-15T22:46:44.123Z,17.40
2023-05-15T22:49:14.820Z,17.30
2023-05-15T22:51:41.754Z,17.10
2023-05-15T22:54:08.483Z,17.00
2023-05-15T22:56:35.482Z,16.90
2023-05-15T22:59:02.178Z,16.90
2023-05-15T23:01:31.537Z,16.90
2023-05-15T23:03:58.373Z,16.90
2023-05-15T23:06:25.390Z,16.90
2023-05-15T23:08:52.192Z,16.90
2023-05-15T23:11:18.905Z,17.10
2023-05-15T23:13:45.682Z,17.00
2023-05-15T23:16:12.513Z,17.10
2023-05-15T23:18:39.303Z,17.20
2023-05-15T23:21:06.092Z,17.20
2023-05-15T23:23:33.069Z,17.20
2023-05-15T23:25:59.861Z,17.20
2023-05-15T23:28:26.654Z,17.20
2023-05-15T23:30:54.522Z,17.20
2023-05-15T23:33:21.693Z,17.30
2023-05-15T23:35:48.380Z,17.30
2023-05-15T23:38:15.158Z,17.40
2023-05-15T23:40:41.923Z,17.50
2023-05-15T23:43:08.703Z,17.50
2023-05-15T23:45:35.668Z,17.50
2023-05-15T23:48:02.427Z,17.50
2023-05-15T23:50:29.323Z,17.60
2023-05-15T23:52:56.197Z,17.60
2023-05-15T23:55:22.941Z,17.60
2023-05-15T23:57:49.666Z,17.70
